Ask Your Question

zoltanh721's profile - karma

zoltanh721's karma change log

10 0 Ask Fedora: Is it working, and what's the future? ( 2017-05-03 12:11:23 -0600 )

10 0 Switch between wifi adapters ( 2017-03-04 09:04:42 -0600 )

10 0 Good Fedora Laptop? Lenovo E460 ( 2016-11-05 23:21:55 -0600 )

15 0 Good Fedora Laptop? Lenovo E460 ( 2016-11-04 00:26:06 -0600 )

10 0 Good Fedora Laptop? Lenovo E460 ( 2016-11-03 10:46:47 -0600 )

10 0 hdmi doesnot work, randr cannot detects monitor ( 2016-01-16 09:53:01 -0600 )

0 -2 How To Install Arista Transcoder In Fedora 16? ( 2016-01-16 05:27:45 -0600 )

2 0 How To Install Arista Transcoder In Fedora 16? ( 2016-01-16 05:27:43 -0600 )

2 0 DNF junk cleanup ( 2016-01-16 04:42:27 -0600 )

10 0 DNF junk cleanup ( 2015-09-28 10:51:48 -0600 )

2 0 Dell Latitude HW question ( 2015-09-10 10:11:28 -0600 )

2 0 Gnome shell screenlock replacement ( 2015-09-05 18:33:11 -0600 )

10 0 Gnome shell screenlock replacement ( 2015-09-05 09:16:00 -0600 )

2 0 FedMesg redirected to mail client ( 2015-08-23 04:19:45 -0600 )

10 0 AskFedora issues ( 2014-07-15 09:50:22 -0600 )

10 0 AskFedora issues ( 2014-07-15 04:55:10 -0600 )

2 0 Install messages by yum ( 2014-07-15 02:23:25 -0600 )

2 0 Permission management on external hdd on ext4 ( 2014-07-04 22:26:54 -0600 )

2 0 Unable to Adjust Slow Touchpad Pointer Speed ( 2014-07-04 04:58:51 -0600 )

10 0 mariadb fails to start ( 2014-06-29 09:27:09 -0600 )

0 -2 How to protect a file ... even from root ? ( 2014-06-27 17:37:12 -0600 )

2 0 How to protect a file ... even from root ? ( 2014-06-27 17:37:12 -0600 )

0 -2 How to protect a file ... even from root ? ( 2014-06-27 17:37:07 -0600 )

2 0 How to protect a file ... even from root ? ( 2014-06-27 17:37:07 -0600 )

2 0 How to protect a file ... even from root ? ( 2014-06-27 17:36:42 -0600 )

0 -2 Gnome 3 GDM login using keyboard only? ( 2014-06-15 23:45:30 -0600 )

2 0 Nightmare in server: realtek 8103 card works, but no internet ( 2013-09-01 11:09:15 -0600 )

2 0 How to enable NFS for a DVD drive? ( 2013-08-30 02:35:29 -0600 )

10 0 How to enable NFS for a DVD drive? ( 2013-08-25 22:26:57 -0600 )

0 -5 XFCE 4.10 and trouble changing sound volume ( 2013-08-25 04:33:33 -0600 )

15 0 XFCE 4.10 and trouble changing sound volume ( 2013-08-24 04:58:46 -0600 )

10 0 XFCE 4.10 and trouble changing sound volume ( 2013-08-24 03:50:46 -0600 )

15 0 Alt+F2 Shutdown command not working... ( 2012-12-05 14:32:04 -0600 )

10 0 Alt+F2 Shutdown command not working... ( 2012-12-05 14:31:51 -0600 )

2 0 Serious problems within my HW or known problem? ( 2012-11-09 16:54:29 -0600 )

2 0 Is it possible to expand in nautilus the computer:/// part? ( 2012-11-09 16:37:18 -0600 )

10 0 GRUB2 won't start after suspending and resuming ( 2012-10-04 08:58:47 -0600 )

10 0 Serious problems within my HW or known problem? ( 2012-10-03 18:59:39 -0600 )